sensor_id;sensor_type;location;lat;lon;timestamp;P1;durP1;ratioP1;P2;durP2;ratioP2
64714;SDS011;51144;53.002;6.506;2023-03-30T00:01:18;11.77;;;8.38;;
64714;SDS011;51144;53.002;6.506;2023-03-30T00:03:45;12.93;;;7.88;;
64714;SDS011;51144;53.002;6.506;2023-03-30T00:06:12;10.82;;;7.88;;
64714;SDS011;51144;53.002;6.506;2023-03-30T00:08:44;13.27;;;7.90;;
64714;SDS011;51144;53.002;6.506;2023-03-30T00:11:12;11.50;;;7.60;;
64714;SDS011;51144;53.002;6.506;2023-03-30T00:13:41;10.70;;;8.23;;
64714;SDS011;51144;53.002;6.506;2023-03-30T00:16:07;11.40;;;7.00;;
64714;SDS011;51144;53.002;6.506;2023-03-30T00:18:35;10.65;;;8.07;;
64714;SDS011;51144;53.002;6.506;2023-03-30T00:21:01;9.73;;;7.28;;
64714;SDS011;51144;53.002;6.506;2023-03-30T00:23:28;8.98;;;7.32;;
64714;SDS011;51144;53.002;6.506;2023-03-30T00:25:54;7.65;;;6.70;;
64714;SDS011;51144;53.002;6.506;2023-03-30T00:28:20;10.18;;;6.70;;
64714;SDS011;51144;53.002;6.506;2023-03-30T00:30:46;11.05;;;6.90;;
64714;SDS011;51144;53.002;6.506;2023-03-30T00:33:13;10.18;;;6.78;;
64714;SDS011;51144;53.002;6.506;2023-03-30T00:35:39;9.82;;;7.28;;
64714;SDS011;51144;53.002;6.506;2023-03-30T00:38:04;10.32;;;6.63;;
64714;SDS011;51144;53.002;6.506;2023-03-30T00:40:31;11.75;;;6.82;;
64714;SDS011;51144;53.002;6.506;2023-03-30T00:42:58;10.05;;;6.07;;
64714;SDS011;51144;53.002;6.506;2023-03-30T00:47:59;12.32;;;6.78;;
64714;SDS011;51144;53.002;6.506;2023-03-30T00:53:04;9.38;;;5.80;;
64714;SDS011;51144;53.002;6.506;2023-03-30T00:55:34;9.50;;;5.10;;
64714;SDS011;51144;53.002;6.506;2023-03-30T00:58:03;11.73;;;6.25;;
64714;SDS011;51144;53.002;6.506;2023-03-30T01:00:30;10.35;;;5.60;;
64714;SDS011;51144;53.002;6.506;2023-03-30T01:02:59;9.10;;;4.88;;
64714;SDS011;51144;53.002;6.506;2023-03-30T01:05:28;8.10;;;5.10;;
64714;SDS011;51144;53.002;6.506;2023-03-30T01:07:54;7.75;;;4.68;;
64714;SDS011;51144;53.002;6.506;2023-03-30T01:10:22;8.55;;;4.63;;
64714;SDS011;51144;53.002;6.506;2023-03-30T01:12:48;12.65;;;5.65;;
64714;SDS011;51144;53.002;6.506;2023-03-30T01:15:14;7.10;;;4.50;;
64714;SDS011;51144;53.002;6.506;2023-03-30T01:17:56;4.82;;;3.97;;
64714;SDS011;51144;53.002;6.506;2023-03-30T01:45:42;8.77;;;3.63;;
64714;SDS011;51144;53.002;6.506;2023-03-30T01:51:02;9.00;;;3.97;;
64714;SDS011;51144;53.002;6.506;2023-03-30T01:56:05;8.57;;;4.00;;
64714;SDS011;51144;53.002;6.506;2023-03-30T01:59:11;6.53;;;3.72;;
64714;SDS011;51144;53.002;6.506;2023-03-30T02:01:36;5.28;;;3.45;;
64714;SDS011;51144;53.002;6.506;2023-03-30T02:04:05;12.55;;;4.20;;
64714;SDS011;51144;53.002;6.506;2023-03-30T02:06:35;8.27;;;3.17;;
64714;SDS011;51144;53.002;6.506;2023-03-30T02:09:08;7.28;;;3.58;;
64714;SDS011;51144;53.002;6.506;2023-03-30T02:11:37;11.13;;;3.50;;
64714;SDS011;51144;53.002;6.506;2023-03-30T02:14:05;5.40;;;3.45;;
64714;SDS011;51144;53.002;6.506;2023-03-30T02:16:38;6.32;;;3.65;;
64714;SDS011;51144;53.002;6.506;2023-03-30T02:19:08;5.95;;;3.78;;
64714;SDS011;51144;53.002;6.506;2023-03-30T02:21:34;8.88;;;4.50;;
64714;SDS011;51144;53.002;6.506;2023-03-30T02:24:01;9.48;;;4.05;;
64714;SDS011;51144;53.002;6.506;2023-03-30T02:26:29;11.30;;;3.53;;
64714;SDS011;51144;53.002;6.506;2023-03-30T02:28:55;7.95;;;4.35;;
64714;SDS011;51144;53.002;6.506;2023-03-30T02:31:21;7.43;;;3.80;;
64714;SDS011;51144;53.002;6.506;2023-03-30T02:45:45;10.25;;;3.92;;
64714;SDS011;51144;53.002;6.506;2023-03-30T02:47:38;6.03;;;3.42;;
64714;SDS011;51144;53.002;6.506;2023-03-30T02:50:32;6.00;;;3.28;;
64714;SDS011;51144;53.002;6.506;2023-03-30T02:53:13;7.82;;;3.53;;
64714;SDS011;51144;53.002;6.506;2023-03-30T02:55:51;9.88;;;3.88;;
64714;SDS011;51144;53.002;6.506;2023-03-30T02:58:41;7.75;;;3.90;;
64714;SDS011;51144;53.002;6.506;2023-03-30T03:01:15;8.85;;;3.33;;
64714;SDS011;51144;53.002;6.506;2023-03-30T03:03:52;10.07;;;3.60;;
64714;SDS011;51144;53.002;6.506;2023-03-30T03:06:26;6.73;;;3.33;;
64714;SDS011;51144;53.002;6.506;2023-03-30T03:08:52;7.38;;;3.13;;
64714;SDS011;51144;53.002;6.506;2023-03-30T03:11:19;8.82;;;3.25;;
64714;SDS011;51144;53.002;6.506;2023-03-30T03:13:45;10.57;;;3.05;;
64714;SDS011;51144;53.002;6.506;2023-03-30T03:16:11;7.88;;;3.55;;
64714;SDS011;51144;53.002;6.506;2023-03-30T03:18:37;8.73;;;2.80;;
64714;SDS011;51144;53.002;6.506;2023-03-30T03:21:04;7.35;;;2.60;;
64714;SDS011;51144;53.002;6.506;2023-03-30T03:23:31;5.43;;;2.67;;
64714;SDS011;51144;53.002;6.506;2023-03-30T03:25:57;8.30;;;3.10;;
64714;SDS011;51144;53.002;6.506;2023-03-30T03:28:24;8.02;;;3.28;;
64714;SDS011;51144;53.002;6.506;2023-03-30T03:30:50;7.03;;;2.40;;
64714;SDS011;51144;53.002;6.506;2023-03-30T03:33:16;5.80;;;2.70;;
64714;SDS011;51144;53.002;6.506;2023-03-30T03:35:44;6.55;;;2.90;;
64714;SDS011;51144;53.002;6.506;2023-03-30T03:38:10;4.88;;;2.58;;
64714;SDS011;51144;53.002;6.506;2023-03-30T03:40:36;8.65;;;2.75;;
64714;SDS011;51144;53.002;6.506;2023-03-30T03:43:02;9.07;;;2.58;;
64714;SDS011;51144;53.002;6.506;2023-03-30T03:45:28;6.22;;;2.15;;
64714;SDS011;51144;53.002;6.506;2023-03-30T03:47:54;4.38;;;2.00;;
64714;SDS011;51144;53.002;6.506;2023-03-30T03:50:20;6.67;;;2.50;;
64714;SDS011;51144;53.002;6.506;2023-03-30T12:17:50;27.70;;;4.93;;
64714;SDS011;51144;53.002;6.506;2023-03-30T12:28:25;28.38;;;4.60;;
64714;SDS011;51144;53.002;6.506;2023-03-30T12:31:03;23.55;;;4.70;;
64714;SDS011;51144;53.002;6.506;2023-03-30T12:38:55;23.25;;;3.42;;
64714;SDS011;51144;53.002;6.506;2023-03-30T12:41:26;29.67;;;4.80;;
64714;SDS011;51144;53.002;6.506;2023-03-30T12:44:23;26.33;;;3.72;;
64714;SDS011;51144;53.002;6.506;2023-03-30T12:47:16;21.38;;;3.05;;
64714;SDS011;51144;53.002;6.506;2023-03-30T13:00:58;30.02;;;5.90;;
64714;SDS011;51144;53.002;6.506;2023-03-30T13:03:35;26.42;;;4.10;;
64714;SDS011;51144;53.002;6.506;2023-03-30T13:09:02;22.27;;;5.35;;
64714;SDS011;51144;53.002;6.506;2023-03-30T13:11:41;26.95;;;4.30;;
64714;SDS011;51144;53.002;6.506;2023-03-30T13:19:34;24.20;;;3.78;;
64714;SDS011;51144;53.002;6.506;2023-03-30T13:32:26;32.47;;;5.40;;
64714;SDS011;51144;53.002;6.506;2023-03-30T13:51:37;26.17;;;4.25;;
64714;SDS011;51144;53.002;6.506;2023-03-30T13:54:10;30.80;;;5.05;;
64714;SDS011;51144;53.002;6.506;2023-03-30T13:56:51;27.02;;;6.03;;
64714;SDS011;51144;53.002;6.506;2023-03-30T13:59:28;28.35;;;4.15;;
64714;SDS011;51144;53.002;6.506;2023-03-30T14:01:57;31.88;;;5.15;;
64714;SDS011;51144;53.002;6.506;2023-03-30T14:04:32;24.60;;;4.50;;
64714;SDS011;51144;53.002;6.506;2023-03-30T14:07:10;27.42;;;4.63;;
64714;SDS011;51144;53.002;6.506;2023-03-30T14:09:46;26.73;;;5.43;;
64714;SDS011;51144;53.002;6.506;2023-03-30T14:12:27;36.97;;;4.82;;
64714;SDS011;51144;53.002;6.506;2023-03-30T14:14:52;27.38;;;4.03;;
64714;SDS011;51144;53.002;6.506;2023-03-30T14:17:19;23.30;;;4.00;;
64714;SDS011;51144;53.002;6.506;2023-03-30T14:22:30;24.10;;;3.75;;
64714;SDS011;51144;53.002;6.506;2023-03-30T14:25:05;24.95;;;4.45;;
64714;SDS011;51144;53.002;6.506;2023-03-30T14:27:44;28.20;;;5.90;;
64714;SDS011;51144;53.002;6.506;2023-03-30T14:30:20;25.25;;;4.22;;
64714;SDS011;51144;53.002;6.506;2023-03-30T14:33:03;28.83;;;5.03;;
64714;SDS011;51144;53.002;6.506;2023-03-30T14:35:48;26.95;;;4.90;;
64714;SDS011;51144;53.002;6.506;2023-03-30T14:38:20;32.95;;;4.45;;
64714;SDS011;51144;53.002;6.506;2023-03-30T14:41:01;27.40;;;5.03;;
64714;SDS011;51144;53.002;6.506;2023-03-30T14:43:31;35.70;;;5.30;;
64714;SDS011;51144;53.002;6.506;2023-03-30T14:46:00;27.00;;;4.20;;
64714;SDS011;51144;53.002;6.506;2023-03-30T14:48:29;39.65;;;6.65;;
64714;SDS011;51144;53.002;6.506;2023-03-30T14:51:17;26.27;;;4.47;;
64714;SDS011;51144;53.002;6.506;2023-03-30T14:53:52;26.90;;;4.78;;
64714;SDS011;51144;53.002;6.506;2023-03-30T14:56:19;27.83;;;5.28;;
64714;SDS011;51144;53.002;6.506;2023-03-30T14:58:47;27.00;;;5.00;;
64714;SDS011;51144;53.002;6.506;2023-03-30T15:01:15;24.40;;;4.53;;
64714;SDS011;51144;53.002;6.506;2023-03-30T15:03:47;28.85;;;5.18;;
64714;SDS011;51144;53.002;6.506;2023-03-30T15:06:14;29.25;;;5.00;;
64714;SDS011;51144;53.002;6.506;2023-03-30T15:08:45;33.85;;;5.05;;
64714;SDS011;51144;53.002;6.506;2023-03-30T15:11:14;28.80;;;5.93;;
64714;SDS011;51144;53.002;6.506;2023-03-30T15:13:50;34.65;;;5.22;;
64714;SDS011;51144;53.002;6.506;2023-03-30T15:16:20;33.60;;;4.97;;
64714;SDS011;51144;53.002;6.506;2023-03-30T15:18:48;36.22;;;6.03;;
64714;SDS011;51144;53.002;6.506;2023-03-30T15:21:16;32.40;;;6.18;;
64714;SDS011;51144;53.002;6.506;2023-03-30T15:23:43;33.55;;;6.65;;
64714;SDS011;51144;53.002;6.506;2023-03-30T15:26:10;36.25;;;5.82;;
64714;SDS011;51144;53.002;6.506;2023-03-30T15:28:47;38.25;;;5.78;;
64714;SDS011;51144;53.002;6.506;2023-03-30T15:31:15;32.83;;;5.22;;
64714;SDS011;51144;53.002;6.506;2023-03-30T15:33:44;31.15;;;6.43;;
64714;SDS011;51144;53.002;6.506;2023-03-30T15:36:18;31.25;;;5.95;;
64714;SDS011;51144;53.002;6.506;2023-03-30T15:39:00;36.60;;;5.60;;
64714;SDS011;51144;53.002;6.506;2023-03-30T15:44:14;35.20;;;5.82;;
64714;SDS011;51144;53.002;6.506;2023-03-30T15:46:45;29.75;;;5.97;;
64714;SDS011;51144;53.002;6.506;2023-03-30T15:49:13;34.10;;;5.70;;
64714;SDS011;51144;53.002;6.506;2023-03-30T15:51:42;33.78;;;4.88;;
64714;SDS011;51144;53.002;6.506;2023-03-30T15:54:14;31.02;;;6.10;;
64714;SDS011;51144;53.002;6.506;2023-03-30T15:59:16;28.67;;;5.65;;
64714;SDS011;51144;53.002;6.506;2023-03-30T16:01:55;32.08;;;6.72;;
64714;SDS011;51144;53.002;6.506;2023-03-30T16:04:25;23.85;;;5.55;;
64714;SDS011;51144;53.002;6.506;2023-03-30T16:06:55;30.17;;;5.55;;
64714;SDS011;51144;53.002;6.506;2023-03-30T16:09:20;33.05;;;5.50;;
64714;SDS011;51144;53.002;6.506;2023-03-30T16:11:47;29.70;;;6.00;;
64714;SDS011;51144;53.002;6.506;2023-03-30T16:14:15;30.73;;;5.72;;
64714;SDS011;51144;53.002;6.506;2023-03-30T16:16:44;34.70;;;6.38;;
64714;SDS011;51144;53.002;6.506;2023-03-30T16:19:10;29.02;;;5.65;;
64714;SDS011;51144;53.002;6.506;2023-03-30T16:21:37;36.50;;;7.25;;
64714;SDS011;51144;53.002;6.506;2023-03-30T16:24:03;39.63;;;6.45;;
64714;SDS011;51144;53.002;6.506;2023-03-30T16:26:29;39.80;;;7.38;;
64714;SDS011;51144;53.002;6.506;2023-03-30T16:28:55;29.45;;;5.50;;
64714;SDS011;51144;53.002;6.506;2023-03-30T16:31:21;32.17;;;5.00;;
64714;SDS011;51144;53.002;6.506;2023-03-30T16:33:47;32.05;;;6.43;;
64714;SDS011;51144;53.002;6.506;2023-03-30T16:36:14;33.03;;;5.93;;
64714;SDS011;51144;53.002;6.506;2023-03-30T16:38:42;31.63;;;5.47;;
64714;SDS011;51144;53.002;6.506;2023-03-30T16:41:09;30.60;;;5.20;;
64714;SDS011;51144;53.002;6.506;2023-03-30T16:43:39;26.58;;;4.80;;
64714;SDS011;51144;53.002;6.506;2023-03-30T16:46:05;33.08;;;6.22;;
64714;SDS011;51144;53.002;6.506;2023-03-30T16:48:31;37.75;;;7.40;;
64714;SDS011;51144;53.002;6.506;2023-03-30T16:50:57;35.47;;;6.10;;
64714;SDS011;51144;53.002;6.506;2023-03-30T16:53:22;36.63;;;7.30;;
64714;SDS011;51144;53.002;6.506;2023-03-30T16:55:48;30.33;;;5.65;;
64714;SDS011;51144;53.002;6.506;2023-03-30T16:58:14;35.95;;;5.63;;
64714;SDS011;51144;53.002;6.506;2023-03-30T17:00:41;34.58;;;5.85;;
64714;SDS011;51144;53.002;6.506;2023-03-30T17:03:11;32.60;;;5.88;;
64714;SDS011;51144;53.002;6.506;2023-03-30T17:05:38;35.63;;;6.95;;
64714;SDS011;51144;53.002;6.506;2023-03-30T17:08:05;34.97;;;6.38;;
64714;SDS011;51144;53.002;6.506;2023-03-30T17:10:38;41.95;;;7.45;;
64714;SDS011;51144;53.002;6.506;2023-03-30T17:13:04;39.05;;;7.57;;
64714;SDS011;51144;53.002;6.506;2023-03-30T17:15:30;43.50;;;7.43;;
64714;SDS011;51144;53.002;6.506;2023-03-30T17:17:59;37.92;;;6.88;;
64714;SDS011;51144;53.002;6.506;2023-03-30T17:20:28;41.70;;;7.35;;
64714;SDS011;51144;53.002;6.506;2023-03-30T17:23:01;33.03;;;6.22;;
64714;SDS011;51144;53.002;6.506;2023-03-30T17:25:27;33.10;;;5.65;;
64714;SDS011;51144;53.002;6.506;2023-03-30T17:27:53;44.97;;;7.03;;
64714;SDS011;51144;53.002;6.506;2023-03-30T17:32:52;38.15;;;6.45;;
64714;SDS011;51144;53.002;6.506;2023-03-30T17:35:20;35.67;;;7.53;;
64714;SDS011;51144;53.002;6.506;2023-03-30T17:37:47;36.58;;;7.20;;
64714;SDS011;51144;53.002;6.506;2023-03-30T17:40:14;33.40;;;6.20;;
64714;SDS011;51144;53.002;6.506;2023-03-30T17:42:44;41.30;;;5.72;;
64714;SDS011;51144;53.002;6.506;2023-03-30T17:45:11;39.35;;;7.55;;
64714;SDS011;51144;53.002;6.506;2023-03-30T17:47:39;29.98;;;5.97;;
64714;SDS011;51144;53.002;6.506;2023-03-30T17:50:16;34.60;;;5.95;;
64714;SDS011;51144;53.002;6.506;2023-03-30T17:52:44;40.72;;;8.15;;
64714;SDS011;51144;53.002;6.506;2023-03-30T17:55:11;32.55;;;5.40;;
64714;SDS011;51144;53.002;6.506;2023-03-30T17:57:37;32.13;;;5.60;;
64714;SDS011;51144;53.002;6.506;2023-03-30T18:00:11;29.88;;;5.13;;
64714;SDS011;51144;53.002;6.506;2023-03-30T18:02:42;34.45;;;5.78;;
64714;SDS011;51144;53.002;6.506;2023-03-30T18:05:07;35.08;;;6.35;;
64714;SDS011;51144;53.002;6.506;2023-03-30T18:07:33;36.70;;;6.03;;
64714;SDS011;51144;53.002;6.506;2023-03-30T18:09:59;34.88;;;6.03;;
64714;SDS011;51144;53.002;6.506;2023-03-30T18:12:25;33.22;;;5.70;;
64714;SDS011;51144;53.002;6.506;2023-03-30T18:14:51;41.42;;;6.70;;
64714;SDS011;51144;53.002;6.506;2023-03-30T18:17:16;34.53;;;5.85;;
64714;SDS011;51144;53.002;6.506;2023-03-30T18:19:45;38.38;;;6.20;;
64714;SDS011;51144;53.002;6.506;2023-03-30T18:22:13;38.40;;;5.80;;
64714;SDS011;51144;53.002;6.506;2023-03-30T18:24:40;34.83;;;6.38;;
64714;SDS011;51144;53.002;6.506;2023-03-30T18:27:07;33.58;;;5.82;;
64714;SDS011;51144;53.002;6.506;2023-03-30T18:29:35;31.67;;;5.05;;
64714;SDS011;51144;53.002;6.506;2023-03-30T18:32:03;29.38;;;5.82;;
64714;SDS011;51144;53.002;6.506;2023-03-30T18:34:30;33.03;;;4.75;;
64714;SDS011;51144;53.002;6.506;2023-03-30T18:36:55;26.48;;;4.50;;
64714;SDS011;51144;53.002;6.506;2023-03-30T18:39:21;33.33;;;5.18;;
64714;SDS011;51144;53.002;6.506;2023-03-30T18:41:47;31.33;;;5.82;;
64714;SDS011;51144;53.002;6.506;2023-03-30T18:44:13;28.00;;;5.55;;
64714;SDS011;51144;53.002;6.506;2023-03-30T18:46:39;28.10;;;4.65;;
64714;SDS011;51144;53.002;6.506;2023-03-30T18:49:08;31.80;;;5.63;;
64714;SDS011;51144;53.002;6.506;2023-03-30T18:51:37;33.55;;;6.30;;
64714;SDS011;51144;53.002;6.506;2023-03-30T18:54:03;28.00;;;4.15;;
64714;SDS011;51144;53.002;6.506;2023-03-30T18:56:29;28.10;;;5.30;;
64714;SDS011;51144;53.002;6.506;2023-03-30T18:58:58;30.02;;;4.82;;
64714;SDS011;51144;53.002;6.506;2023-03-30T19:01:26;27.73;;;4.95;;
64714;SDS011;51144;53.002;6.506;2023-03-30T19:03:55;34.08;;;5.68;;
64714;SDS011;51144;53.002;6.506;2023-03-30T19:06:21;37.13;;;6.60;;
64714;SDS011;51144;53.002;6.506;2023-03-30T19:08:47;27.80;;;4.25;;
64714;SDS011;51144;53.002;6.506;2023-03-30T19:11:18;22.35;;;3.97;;
64714;SDS011;51144;53.002;6.506;2023-03-30T19:13:47;23.58;;;3.97;;
64714;SDS011;51144;53.002;6.506;2023-03-30T19:16:14;24.95;;;4.30;;
64714;SDS011;51144;53.002;6.506;2023-03-30T19:18:44;22.02;;;4.28;;
64714;SDS011;51144;53.002;6.506;2023-03-30T19:21:13;31.00;;;4.80;;
64714;SDS011;51144;53.002;6.506;2023-03-30T19:23:41;32.15;;;6.05;;
64714;SDS011;51144;53.002;6.506;2023-03-30T19:26:09;25.70;;;4.85;;
64714;SDS011;51144;53.002;6.506;2023-03-30T19:28:36;24.35;;;3.83;;
64714;SDS011;51144;53.002;6.506;2023-03-30T19:31:03;27.40;;;4.70;;
64714;SDS011;51144;53.002;6.506;2023-03-30T19:33:39;32.63;;;6.53;;
64714;SDS011;51144;53.002;6.506;2023-03-30T19:36:05;26.55;;;3.92;;
64714;SDS011;51144;53.002;6.506;2023-03-30T19:38:32;28.20;;;3.90;;
64714;SDS011;51144;53.002;6.506;2023-03-30T19:40:58;23.48;;;3.88;;
64714;SDS011;51144;53.002;6.506;2023-03-30T19:43:25;23.48;;;4.30;;
64714;SDS011;51144;53.002;6.506;2023-03-30T19:45:51;21.08;;;3.45;;
64714;SDS011;51144;53.002;6.506;2023-03-30T19:48:17;29.65;;;5.22;;
64714;SDS011;51144;53.002;6.506;2023-03-30T19:50:42;21.98;;;4.15;;
64714;SDS011;51144;53.002;6.506;2023-03-30T19:53:08;24.08;;;3.95;;
64714;SDS011;51144;53.002;6.506;2023-03-30T19:55:34;20.77;;;3.80;;
64714;SDS011;51144;53.002;6.506;2023-03-30T19:58:00;29.00;;;4.40;;
64714;SDS011;51144;53.002;6.506;2023-03-30T20:00:26;29.00;;;3.63;;
64714;SDS011;51144;53.002;6.506;2023-03-30T20:02:52;22.20;;;3.15;;
64714;SDS011;51144;53.002;6.506;2023-03-30T20:05:19;22.70;;;3.63;;
64714;SDS011;51144;53.002;6.506;2023-03-30T20:07:49;26.55;;;4.65;;
64714;SDS011;51144;53.002;6.506;2023-03-30T20:10:16;21.48;;;3.38;;
64714;SDS011;51144;53.002;6.506;2023-03-30T20:12:44;21.08;;;3.28;;
64714;SDS011;51144;53.002;6.506;2023-03-30T20:15:10;20.52;;;3.95;;
64714;SDS011;51144;53.002;6.506;2023-03-30T20:17:37;29.05;;;4.22;;
64714;SDS011;51144;53.002;6.506;2023-03-30T20:20:04;22.88;;;2.95;;
64714;SDS011;51144;53.002;6.506;2023-03-30T20:22:35;24.38;;;3.15;;
64714;SDS011;51144;53.002;6.506;2023-03-30T20:25:04;19.40;;;2.85;;
64714;SDS011;51144;53.002;6.506;2023-03-30T20:27:34;28.65;;;4.22;;
64714;SDS011;51144;53.002;6.506;2023-03-30T20:30:00;29.67;;;4.28;;
64714;SDS011;51144;53.002;6.506;2023-03-30T20:32:27;27.33;;;4.13;;
64714;SDS011;51144;53.002;6.506;2023-03-30T20:34:53;21.35;;;3.25;;
64714;SDS011;51144;53.002;6.506;2023-03-30T20:37:19;24.88;;;3.67;;
64714;SDS011;51144;53.002;6.506;2023-03-30T20:39:45;28.20;;;3.60;;
64714;SDS011;51144;53.002;6.506;2023-03-30T20:42:13;19.42;;;2.92;;
64714;SDS011;51144;53.002;6.506;2023-03-30T20:44:42;26.50;;;4.45;;
64714;SDS011;51144;53.002;6.506;2023-03-30T20:47:14;26.65;;;3.53;;
64714;SDS011;51144;53.002;6.506;2023-03-30T20:49:41;24.02;;;2.63;;
64714;SDS011;51144;53.002;6.506;2023-03-30T20:52:10;20.27;;;3.97;;
64714;SDS011;51144;53.002;6.506;2023-03-30T20:54:36;31.15;;;4.57;;
64714;SDS011;51144;53.002;6.506;2023-03-30T20:57:02;25.40;;;4.30;;
64714;SDS011;51144;53.002;6.506;2023-03-30T20:59:28;21.60;;;2.80;;
64714;SDS011;51144;53.002;6.506;2023-03-30T21:01:54;20.45;;;2.83;;
64714;SDS011;51144;53.002;6.506;2023-03-30T21:04:22;21.88;;;3.20;;
64714;SDS011;51144;53.002;6.506;2023-03-30T21:06:49;22.42;;;2.88;;
64714;SDS011;51144;53.002;6.506;2023-03-30T21:09:14;24.95;;;3.17;;
64714;SDS011;51144;53.002;6.506;2023-03-30T21:11:41;24.23;;;3.03;;
64714;SDS011;51144;53.002;6.506;2023-03-30T21:14:08;23.33;;;3.50;;
64714;SDS011;51144;53.002;6.506;2023-03-30T21:16:36;19.90;;;3.60;;
64714;SDS011;51144;53.002;6.506;2023-03-30T21:19:03;31.30;;;4.38;;
64714;SDS011;51144;53.002;6.506;2023-03-30T21:21:29;25.45;;;3.70;;
64714;SDS011;51144;53.002;6.506;2023-03-30T21:23:57;26.58;;;3.40;;
64714;SDS011;51144;53.002;6.506;2023-03-30T21:26:24;31.55;;;3.53;;
64714;SDS011;51144;53.002;6.506;2023-03-30T21:28:50;21.60;;;3.95;;
64714;SDS011;51144;53.002;6.506;2023-03-30T21:31:16;20.63;;;3.33;;
64714;SDS011;51144;53.002;6.506;2023-03-30T21:33:42;21.00;;;3.42;;
64714;SDS011;51144;53.002;6.506;2023-03-30T21:36:08;24.08;;;3.15;;
64714;SDS011;51144;53.002;6.506;2023-03-30T21:38:34;20.98;;;3.38;;
64714;SDS011;51144;53.002;6.506;2023-03-30T21:43:33;29.90;;;5.15;;
64714;SDS011;51144;53.002;6.506;2023-03-30T21:46:01;27.77;;;4.68;;
64714;SDS011;51144;53.002;6.506;2023-03-30T21:48:30;26.13;;;3.83;;
64714;SDS011;51144;53.002;6.506;2023-03-30T21:53:37;22.58;;;3.58;;
64714;SDS011;51144;53.002;6.506;2023-03-30T21:56:03;24.27;;;3.92;;
64714;SDS011;51144;53.002;6.506;2023-03-30T21:58:29;29.70;;;4.07;;
64714;SDS011;51144;53.002;6.506;2023-03-30T22:00:55;24.10;;;4.82;;
64714;SDS011;51144;53.002;6.506;2023-03-30T22:03:21;21.05;;;2.78;;
64714;SDS011;51144;53.002;6.506;2023-03-30T22:05:47;20.13;;;3.63;;
64714;SDS011;51144;53.002;6.506;2023-03-30T22:08:13;25.80;;;4.05;;
64714;SDS011;51144;53.002;6.506;2023-03-30T22:10:41;27.45;;;4.28;;
64714;SDS011;51144;53.002;6.506;2023-03-30T22:13:08;26.23;;;4.30;;
64714;SDS011;51144;53.002;6.506;2023-03-30T22:15:35;35.20;;;4.90;;
64714;SDS011;51144;53.002;6.506;2023-03-30T22:18:01;21.10;;;3.35;;
64714;SDS011;51144;53.002;6.506;2023-03-30T22:20:28;23.30;;;3.88;;
64714;SDS011;51144;53.002;6.506;2023-03-30T22:22:55;26.98;;;4.28;;
64714;SDS011;51144;53.002;6.506;2023-03-30T22:25:21;26.95;;;4.20;;
64714;SDS011;51144;53.002;6.506;2023-03-30T22:27:47;27.83;;;4.30;;
64714;SDS011;51144;53.002;6.506;2023-03-30T22:30:13;30.73;;;3.63;;
64714;SDS011;51144;53.002;6.506;2023-03-30T22:32:39;29.65;;;4.13;;
64714;SDS011;51144;53.002;6.506;2023-03-30T22:35:05;25.45;;;3.58;;
64714;SDS011;51144;53.002;6.506;2023-03-30T22:37:31;25.27;;;3.63;;
64714;SDS011;51144;53.002;6.506;2023-03-30T22:39:57;29.00;;;4.43;;
64714;SDS011;51144;53.002;6.506;2023-03-30T22:42:23;32.30;;;4.68;;
64714;SDS011;51144;53.002;6.506;2023-03-30T22:44:48;33.90;;;4.97;;
64714;SDS011;51144;53.002;6.506;2023-03-30T22:47:14;27.42;;;3.83;;
64714;SDS011;51144;53.002;6.506;2023-03-30T22:49:40;29.92;;;3.58;;
64714;SDS011;51144;53.002;6.506;2023-03-30T22:52:06;28.45;;;3.55;;
64714;SDS011;51144;53.002;6.506;2023-03-30T22:54:32;31.45;;;5.25;;
64714;SDS011;51144;53.002;6.506;2023-03-30T22:56:58;37.80;;;5.43;;
64714;SDS011;51144;53.002;6.506;2023-03-30T22:59:24;30.10;;;5.50;;
64714;SDS011;51144;53.002;6.506;2023-03-30T23:01:50;28.95;;;4.80;;
64714;SDS011;51144;53.002;6.506;2023-03-30T23:04:16;27.92;;;5.05;;
64714;SDS011;51144;53.002;6.506;2023-03-30T23:06:42;35.58;;;5.05;;
64714;SDS011;51144;53.002;6.506;2023-03-30T23:09:09;27.98;;;4.32;;
64714;SDS011;51144;53.002;6.506;2023-03-30T23:11:37;27.45;;;4.88;;
64714;SDS011;51144;53.002;6.506;2023-03-30T23:14:05;23.58;;;4.10;;
64714;SDS011;51144;53.002;6.506;2023-03-30T23:16:31;31.50;;;5.32;;
64714;SDS011;51144;53.002;6.506;2023-03-30T23:18:58;30.65;;;5.50;;
64714;SDS011;51144;53.002;6.506;2023-03-30T23:21:25;21.30;;;2.92;;
64714;SDS011;51144;53.002;6.506;2023-03-30T23:23:58;37.00;;;4.50;;
64714;SDS011;51144;53.002;6.506;2023-03-30T23:26:31;31.43;;;4.77;;
64714;SDS011;51144;53.002;6.506;2023-03-30T23:28:57;32.58;;;5.03;;
64714;SDS011;51144;53.002;6.506;2023-03-30T23:31:23;29.67;;;4.13;;
64714;SDS011;51144;53.002;6.506;2023-03-30T23:33:52;30.60;;;5.05;;
64714;SDS011;51144;53.002;6.506;2023-03-30T23:36:20;37.75;;;6.38;;
64714;SDS011;51144;53.002;6.506;2023-03-30T23:38:46;25.85;;;4.35;;
64714;SDS011;51144;53.002;6.506;2023-03-30T23:41:13;27.27;;;4.35;;
64714;SDS011;51144;53.002;6.506;2023-03-30T23:43:40;31.75;;;5.65;;
64714;SDS011;51144;53.002;6.506;2023-03-30T23:46:06;26.40;;;5.00;;
